Time;durP1;ratioP1;P1;durP2;ratioP2;P2;SDS_P1;SDS_P2;PMS_P1;PMS_P2;Temp;Humidity;BMP_temperature;BMP_pressure;BME280_temperature;BME280_humidity;BME280_pressure;Samples;Min_cycle;Max_cycle;Signal;HPM_P1;HPM_P2
2022/08/08 00:02:38;;;;;;;6.20;4.63;;;;;;;;;;5044912;28;20603;-78
2022/08/08 00:05:18;;;;;;;5.90;4.27;;;;;;;;;;5049223;28;20202;-78
2022/08/08 00:07:56;;;;;;;9.13;5.10;;;;;;;;;;5038165;28;20214;-78
2022/08/08 00:10:33;;;;;;;6.60;4.70;;;;;;;;;;5033362;28;20230;-78
2022/08/08 00:13:23;;;;;;;6.40;4.43;;;;;;;;;;5042368;28;20256;-78
2022/08/08 00:16:12;;;;;;;6.90;4.80;;;;;;;;;;5047027;28;20277;-78
2022/08/08 00:18:58;;;;;;;7.70;5.00;;;;;;;;;;5044133;28;20193;-78
2022/08/08 00:21:26;;;;;;;8.80;5.10;;;;;;;;;;5043521;28;20668;-78
2022/08/08 00:24:25;;;;;;;8.97;5.13;;;;;;;;;;5044594;28;20201;-78
2022/08/08 00:26:56;;;;;;;6.67;4.83;;;;;;;;;;5040536;28;20251;-78
2022/08/08 00:29:28;;;;;;;6.80;4.73;;;;;;;;;;5028075;28;20241;-78
2022/08/08 00:32:14;;;;;;;8.57;4.73;;;;;;;;;;5040190;28;20187;-77
2022/08/08 00:35:19;;;;;;;7.73;4.53;;;;;;;;;;5041737;28;20195;-78
2022/08/08 00:37:56;;;;;;;9.77;4.90;;;;;;;;;;5040493;28;20736;-78
2022/08/08 00:40:52;;;;;;;6.83;4.10;;;;;;;;;;5042540;28;20178;-78
2022/08/08 00:43:44;;;;;;;6.33;4.43;;;;;;;;;;5043915;28;20675;-78
2022/08/08 00:46:35;;;;;;;7.63;4.13;;;;;;;;;;5038403;28;20227;-78
2022/08/08 00:49:41;;;;;;;8.43;4.47;;;;;;;;;;5036707;28;20266;-78
2022/08/08 00:52:36;;;;;;;8.10;5.10;;;;;;;;;;5044943;28;20179;-78
2022/08/08 00:55:09;;;;;;;7.37;5.00;;;;;;;;;;5044250;28;20681;-78
2022/08/08 00:57:39;;;;;;;7.60;4.67;;;;;;;;;;5049437;28;20187;-77
2022/08/08 01:00:13;;;;;;;7.47;4.33;;;;;;;;;;5038340;28;20662;-78
2022/08/08 01:02:59;;;;;;;7.03;4.80;;;;;;;;;;5049554;28;20191;-77
2022/08/08 01:05:47;;;;;;;8.73;5.27;;;;;;;;;;5046146;28;20654;-78
2022/08/08 01:09:11;;;;;;;12.30;5.37;;;;;;;;;;5007773;28;20717;-78
2022/08/08 01:12:20;;;;;;;7.10;4.80;;;;;;;;;;5002310;28;20714;-78
2022/08/08 01:15:26;;;;;;;8.10;5.27;;;;;;;;;;5009944;28;20235;-78
2022/08/08 01:18:19;;;;;;;11.00;5.10;;;;;;;;;;5006300;28;20238;-78
2022/08/08 01:21:10;;;;;;;9.33;5.67;;;;;;;;;;4991043;28;20206;-77
2022/08/08 01:23:42;;;;;;;6.73;4.93;;;;;;;;;;5007727;28;20242;-78
2022/08/08 01:26:27;;;;;;;7.30;5.03;;;;;;;;;;4989524;28;20177;-78
2022/08/08 01:29:05;;;;;;;8.77;5.40;;;;;;;;;;5007299;28;20243;-78
2022/08/08 01:31:54;;;;;;;7.33;5.20;;;;;;;;;;5000680;28;20189;-78
2022/08/08 01:35:16;;;;;;;8.80;5.23;;;;;;;;;;4997544;28;20254;-77
2022/08/08 01:38:15;;;;;;;7.93;5.27;;;;;;;;;;4969608;28;20260;-77
2022/08/08 01:40:55;;;;;;;9.00;5.10;;;;;;;;;;5034345;28;20202;-77
2022/08/08 01:43:29;;;;;;;7.10;4.90;;;;;;;;;;5021649;28;20199;-78
2022/08/08 01:46:09;;;;;;;7.13;4.93;;;;;;;;;;5043818;28;20608;-78
2022/08/08 01:49:22;;;;;;;9.23;5.50;;;;;;;;;;5037598;28;20225;-78
2022/08/08 01:52:21;;;;;;;8.87;5.30;;;;;;;;;;5047827;28;20194;-77
2022/08/08 01:55:20;;;;;;;8.53;5.30;;;;;;;;;;5033600;28;20241;-78
2022/08/08 01:58:14;;;;;;;7.43;5.10;;;;;;;;;;5043226;28;20203;-78
2022/08/08 02:01:04;;;;;;;5.87;4.60;;;;;;;;;;5042598;28;20253;-78
2022/08/08 02:03:56;;;;;;;7.93;5.30;;;;;;;;;;5023489;28;20280;-78
2022/08/08 02:06:48;;;;;;;9.67;5.03;;;;;;;;;;5031918;28;20187;-78
2022/08/08 02:09:35;;;;;;;10.53;5.60;;;;;;;;;;5048748;28;20242;-75
2022/08/08 02:12:33;;;;;;;7.17;4.83;;;;;;;;;;5039464;28;20199;-78
2022/08/08 02:15:10;;;;;;;7.00;4.73;;;;;;;;;;5017978;28;20532;-78
2022/08/08 02:17:45;;;;;;;8.67;5.07;;;;;;;;;;5062016;28;20206;-77
2022/08/08 02:20:26;;;;;;;9.17;4.90;;;;;;;;;;5039701;28;20199;-78
2022/08/08 02:23:26;;;;;;;7.33;4.43;;;;;;;;;;5035722;28;20191;-78
2022/08/08 02:26:10;;;;;;;6.83;4.70;;;;;;;;;;5032636;28;20271;-78
2022/08/08 02:28:52;;;;;;;7.90;4.70;;;;;;;;;;5047546;28;20230;-78
2022/08/08 02:31:31;;;;;;;6.67;4.43;;;;;;;;;;5028767;28;20207;-78
2022/08/08 02:34:19;;;;;;;7.87;4.90;;;;;;;;;;5042606;28;20199;-78
2022/08/08 02:37:22;;;;;;;8.83;4.70;;;;;;;;;;5039276;28;20198;-78
2022/08/08 02:40:10;;;;;;;5.00;3.90;;;;;;;;;;5031346;28;20676;-78
2022/08/08 02:42:46;;;;;;;6.63;4.47;;;;;;;;;;5040041;28;20191;-77
2022/08/08 02:45:36;;;;;;;8.97;4.43;;;;;;;;;;5044773;28;20183;-78
2022/08/08 02:48:21;;;;;;;7.33;3.93;;;;;;;;;;5038393;28;20226;-78
2022/08/08 02:51:00;;;;;;;8.40;4.20;;;;;;;;;;5045942;28;20195;-78
2022/08/08 02:53:49;;;;;;;7.13;4.00;;;;;;;;;;5033369;28;20199;-77
2022/08/08 02:56:24;;;;;;;7.20;3.97;;;;;;;;;;5036268;28;20195;-78
2022/08/08 02:59:19;;;;;;;5.47;3.80;;;;;;;;;;5029426;28;20273;-78
2022/08/08 03:02:23;;;;;;;6.83;4.00;;;;;;;;;;5027290;28;20795;-78
2022/08/08 03:05:07;;;;;;;5.73;4.20;;;;;;;;;;5003393;28;20268;-77
2022/08/08 03:07:54;;;;;;;6.80;4.40;;;;;;;;;;5045991;28;20692;-78
2022/08/08 03:10:38;;;;;;;7.23;4.40;;;;;;;;;;5045477;28;20234;-78
2022/08/08 03:13:38;;;;;;;7.40;4.37;;;;;;;;;;5023792;28;20706;-77
2022/08/08 03:16:38;;;;;;;6.27;4.17;;;;;;;;;;5046587;28;20221;-77
2022/08/08 03:19:18;;;;;;;8.47;4.20;;;;;;;;;;5035690;28;20194;-78
2022/08/08 03:21:47;;;;;;;7.43;4.17;;;;;;;;;;5033271;28;20667;-78
2022/08/08 03:24:33;;;;;;;5.57;3.60;;;;;;;;;;5043727;28;20191;-78
2022/08/08 03:27:20;;;;;;;7.10;4.50;;;;;;;;;;5044396;28;21004;-78
2022/08/08 03:29:55;;;;;;;6.10;4.47;;;;;;;;;;5020633;28;20272;-78
2022/08/08 03:35:25;;;;;;;10.87;5.83;;;;;;;;;;5037197;28;20266;-77
2022/08/08 03:37:59;;;;;;;10.90;5.30;;;;;;;;;;5041182;28;20236;-78
2022/08/08 03:40:53;;;;;;;9.57;4.80;;;;;;;;;;5031052;28;20198;-77
2022/08/08 03:43:24;;;;;;;9.33;5.43;;;;;;;;;;5035367;28;20191;-79
2022/08/08 03:46:05;;;;;;;10.17;4.90;;;;;;;;;;5047623;28;20206;-78
2022/08/08 03:48:39;;;;;;;8.10;5.47;;;;;;;;;;5032671;28;20211;-77
2022/08/08 03:51:35;;;;;;;6.93;4.80;;;;;;;;;;5028117;28;20262;-78
2022/08/08 03:54:21;;;;;;;5.83;4.83;;;;;;;;;;5040364;28;20203;-78
2022/08/08 03:57:13;;;;;;;8.23;4.93;;;;;;;;;;5044246;28;20182;-78
2022/08/08 04:00:00;;;;;;;7.70;4.87;;;;;;;;;;5040925;28;20210;-78
2022/08/08 04:02:42;;;;;;;8.57;5.00;;;;;;;;;;5044828;28;20207;-77
2022/08/08 04:05:19;;;;;;;10.00;5.63;;;;;;;;;;5031987;28;20202;-78
2022/08/08 04:07:55;;;;;;;9.10;5.07;;;;;;;;;;5030810;28;20202;-78
2022/08/08 04:10:24;;;;;;;6.20;5.03;;;;;;;;;;5020752;28;20227;-78
2022/08/08 04:13:00;;;;;;;6.87;4.90;;;;;;;;;;5049391;28;20194;-77
2022/08/08 04:15:45;;;;;;;9.63;5.30;;;;;;;;;;5034034;28;20200;-78
2022/08/08 04:18:34;;;;;;;8.53;4.70;;;;;;;;;;5047979;28;20185;-78
2022/08/08 04:21:16;;;;;;;9.10;5.33;;;;;;;;;;5036117;28;20202;-78
2022/08/08 04:23:53;;;;;;;11.20;5.30;;;;;;;;;;5043877;28;20244;-78
2022/08/08 04:26:40;;;;;;;33.97;8.73;;;;;;;;;;5040128;28;20282;-78
2022/08/08 04:29:26;;;;;;;17.33;7.27;;;;;;;;;;5047551;28;20233;-77
2022/08/08 04:32:07;;;;;;;15.17;6.60;;;;;;;;;;5046482;28;20205;-78
2022/08/08 04:34:38;;;;;;;12.40;6.10;;;;;;;;;;5041952;28;20203;-77
2022/08/08 04:37:24;;;;;;;10.67;5.20;;;;;;;;;;5048627;28;20210;-77
2022/08/08 04:40:02;;;;;;;8.83;5.13;;;;;;;;;;5047545;28;20205;-78
2022/08/08 04:42:43;;;;;;;10.40;5.30;;;;;;;;;;5038544;28;20237;-78
2022/08/08 04:45:26;;;;;;;10.83;4.80;;;;;;;;;;5048862;28;20504;-77
2022/08/08 04:47:57;;;;;;;11.67;4.93;;;;;;;;;;5019081;28;20202;-77
2022/08/08 04:50:42;;;;;;;11.60;4.50;;;;;;;;;;5046182;28;20547;-77
2022/08/08 04:53:18;;;;;;;10.20;5.57;;;;;;;;;;5032151;28;20195;-77
2022/08/08 04:56:03;;;;;;;12.97;4.70;;;;;;;;;;5045336;28;20184;-77
2022/08/08 04:58:33;;;;;;;10.30;4.50;;;;;;;;;;5022952;28;20219;-77
2022/08/08 05:01:04;;;;;;;9.73;4.43;;;;;;;;;;5049966;28;20203;-77
2022/08/08 05:03:39;;;;;;;9.43;4.53;;;;;;;;;;5030468;28;20269;-77
2022/08/08 05:06:29;;;;;;;9.67;5.00;;;;;;;;;;5064310;28;20205;-77
2022/08/08 05:08:56;;;;;;;11.63;4.73;;;;;;;;;;5032028;28;20285;-77
2022/08/08 05:11:31;;;;;;;10.77;4.40;;;;;;;;;;5038906;28;20300;-77
2022/08/08 05:14:08;;;;;;;7.33;4.70;;;;;;;;;;5049991;28;20201;-77
2022/08/08 05:16:41;;;;;;;12.27;4.60;;;;;;;;;;5065580;28;20902;-78
2022/08/08 05:19:23;;;;;;;7.87;3.97;;;;;;;;;;5045999;28;20290;-77
2022/08/08 05:22:11;;;;;;;9.13;4.00;;;;;;;;;;5033102;28;20221;-78
2022/08/08 05:24:45;;;;;;;11.00;3.70;;;;;;;;;;5048794;28;20205;-77
2022/08/08 05:27:30;;;;;;;12.13;3.70;;;;;;;;;;5042158;28;20594;-77
2022/08/08 05:29:59;;;;;;;5.70;3.23;;;;;;;;;;5048963;28;20226;-77
2022/08/08 05:32:33;;;;;;;4.20;2.90;;;;;;;;;;5030217;28;20322;-77
2022/08/08 05:35:04;;;;;;;4.07;2.60;;;;;;;;;;5036055;28;20195;-77
2022/08/08 05:37:38;;;;;;;5.90;2.77;;;;;;;;;;5045567;28;20183;-78
2022/08/08 05:40:47;;;;;;;6.33;2.77;;;;;;;;;;5044433;28;20219;-77
2022/08/08 05:43:20;;;;;;;7.73;3.00;;;;;;;;;;5042867;28;21003;-78
2022/08/08 05:46:10;;;;;;;7.47;2.70;;;;;;;;;;5041053;28;20207;-78
2022/08/08 05:48:55;;;;;;;7.17;2.53;;;;;;;;;;5041970;28;20595;-77
2022/08/08 05:51:26;;;;;;;7.23;2.50;;;;;;;;;;5045473;28;20194;-77
2022/08/08 05:54:13;;;;;;;6.60;2.60;;;;;;;;;;5045095;28;20594;-78
2022/08/08 05:57:00;;;;;;;5.47;2.43;;;;;;;;;;5042915;28;20187;-78
2022/08/08 05:59:32;;;;;;;5.87;2.67;;;;;;;;;;5030896;28;20203;-78
2022/08/08 06:05:18;;;;;;;4.33;1.90;;;;;;;;;;5033068;28;20198;-77
2022/08/08 06:08:06;;;;;;;4.80;2.03;;;;;;;;;;5043573;28;20269;-78
2022/08/08 06:10:57;;;;;;;5.87;1.90;;;;;;;;;;5043084;28;20214;-77
2022/08/08 06:13:27;;;;;;;5.27;1.80;;;;;;;;;;5018171;28;20582;-77
2022/08/08 06:16:15;;;;;;;4.97;1.70;;;;;;;;;;5045540;28;20593;-76
2022/08/08 06:18:57;;;;;;;6.27;1.90;;;;;;;;;;5041909;28;20597;-77
2022/08/08 06:21:25;;;;;;;5.00;1.50;;;;;;;;;;5047388;28;20218;-76
2022/08/08 06:24:13;;;;;;;6.30;1.60;;;;;;;;;;5049844;28;20221;-78
2022/08/08 06:27:08;;;;;;;3.53;1.63;;;;;;;;;;5047868;28;20190;-78
2022/08/08 06:29:45;;;;;;;7.60;1.70;;;;;;;;;;5059477;28;20253;-79
2022/08/08 06:32:54;;;;;;;3.47;1.33;;;;;;;;;;5039988;28;20282;-78
2022/08/08 06:35:24;;;;;;;8.60;1.40;;;;;;;;;;5038085;28;20194;-78
2022/08/08 06:38:15;;;;;;;4.97;1.40;;;;;;;;;;5050662;28;20511;-78
2022/08/08 06:40:49;;;;;;;5.07;1.30;;;;;;;;;;5031706;28;20225;-78
2022/08/08 06:43:24;;;;;;;5.33;1.30;;;;;;;;;;5049229;28;20202;-78
2022/08/08 06:46:02;;;;;;;3.67;1.20;;;;;;;;;;5048577;28;20642;-78
2022/08/08 06:48:29;;;;;;;3.67;1.20;;;;;;;;;;5046345;28;20599;-77
2022/08/08 06:50:58;;;;;;;2.13;1.30;;;;;;;;;;5048872;28;20210;-78
2022/08/08 06:53:33;;;;;;;4.63;1.50;;;;;;;;;;5049634;28;20689;-79
2022/08/08 06:56:10;;;;;;;3.37;1.17;;;;;;;;;;5042944;28;20196;-79
2022/08/08 06:58:42;;;;;;;3.80;1.20;;;;;;;;;;5045930;28;20292;-79
2022/08/08 07:01:11;;;;;;;3.13;1.27;;;;;;;;;;5027035;28;20195;-79
2022/08/08 07:04:05;;;;;;;2.33;1.30;;;;;;;;;;5032908;28;20719;-79
2022/08/08 07:06:54;;;;;;;4.93;1.40;;;;;;;;;;5046243;28;20726;-78
2022/08/08 07:09:31;;;;;;;5.73;1.50;;;;;;;;;;5046574;28;20207;-79
2022/08/08 07:12:21;;;;;;;4.27;1.20;;;;;;;;;;5044257;28;20227;-79
2022/08/08 07:15:02;;;;;;;5.37;1.33;;;;;;;;;;5049883;28;20187;-79
2022/08/08 07:17:35;;;;;;;3.33;1.40;;;;;;;;;;5029217;28;20280;-79
2022/08/08 07:20:25;;;;;;;4.97;1.87;;;;;;;;;;5046907;28;20206;-79
2022/08/08 07:23:02;;;;;;;4.97;1.23;;;;;;;;;;5051362;28;20260;-78
2022/08/08 07:25:33;;;;;;;5.57;1.33;;;;;;;;;;5023334;28;20570;-78
2022/08/08 07:28:25;;;;;;;4.07;1.30;;;;;;;;;;5046369;28;20609;-79
2022/08/08 07:31:03;;;;;;;4.50;1.33;;;;;;;;;;5031702;28;20325;-78
2022/08/08 07:33:31;;;;;;;5.60;1.30;;;;;;;;;;5038237;28;20195;-79
2022/08/08 07:36:06;;;;;;;1.97;1.10;;;;;;;;;;5024161;28;20215;-79
2022/08/08 07:38:34;;;;;;;4.27;1.47;;;;;;;;;;5047635;28;20944;-78
2022/08/08 07:41:08;;;;;;;2.57;0.97;;;;;;;;;;5039821;28;20199;-78
2022/08/08 07:43:53;;;;;;;5.27;1.07;;;;;;;;;;5041189;28;20669;-77
2022/08/08 07:46:20;;;;;;;4.30;1.40;;;;;;;;;;5042440;28;20191;-77
2022/08/08 07:49:12;;;;;;;4.40;1.07;;;;;;;;;;5047035;28;20288;-77
2022/08/08 07:51:41;;;;;;;2.93;1.17;;;;;;;;;;5032279;28;20246;-78
2022/08/08 07:54:23;;;;;;;5.37;1.30;;;;;;;;;;5040065;28;20199;-77
2022/08/08 07:57:15;;;;;;;4.03;1.47;;;;;;;;;;5033138;28;20203;-60
2022/08/08 07:59:51;;;;;;;4.00;1.20;;;;;;;;;;5028281;28;20223;-61
2022/08/08 08:02:21;;;;;;;6.93;2.60;;;;;;;;;;5046285;28;20192;-62
2022/08/08 08:05:17;;;;;;;5.10;1.30;;;;;;;;;;5050830;28;20761;-61
2022/08/08 08:07:46;;;;;;;3.93;1.10;;;;;;;;;;5047454;28;20195;-62
2022/08/08 08:10:23;;;;;;;3.10;1.33;;;;;;;;;;5046338;28;20226;-62
2022/08/08 08:13:19;;;;;;;12.43;1.47;;;;;;;;;;5032716;28;20681;-69
2022/08/08 08:16:04;;;;;;;3.87;1.10;;;;;;;;;;5049077;28;20646;-63
2022/08/08 08:18:40;;;;;;;8.43;1.97;;;;;;;;;;5047382;28;20191;-62
2022/08/08 08:21:24;;;;;;;7.23;2.00;;;;;;;;;;5037170;28;20202;-62
2022/08/08 08:24:33;;;;;;;22.23;2.20;;;;;;;;;;5041914;28;20686;-63
2022/08/08 08:27:03;;;;;;;2.83;1.30;;;;;;;;;;5054437;28;20647;-65
2022/08/08 08:29:39;;;;;;;2.47;1.20;;;;;;;;;;5045556;28;20215;-64
2022/08/08 08:32:10;;;;;;;2.30;1.37;;;;;;;;;;5043418;28;20198;-66
2022/08/08 08:34:40;;;;;;;3.37;1.20;;;;;;;;;;5046682;28;20250;-66
2022/08/08 08:37:15;;;;;;;6.13;1.20;;;;;;;;;;5050070;28;20202;-64
2022/08/08 08:39:49;;;;;;;6.43;1.40;;;;;;;;;;5048624;28;20206;-64
2022/08/08 08:42:33;;;;;;;6.53;1.37;;;;;;;;;;5041511;28;20306;-65
2022/08/08 08:45:08;;;;;;;4.93;1.30;;;;;;;;;;5041188;28;20210;-64
2022/08/08 08:48:00;;;;;;;6.87;1.33;;;;;;;;;;5039761;28;20231;-65
2022/08/08 08:50:33;;;;;;;5.47;1.40;;;;;;;;;;5049862;28;20218;-64
2022/08/08 08:53:08;;;;;;;5.60;1.40;;;;;;;;;;5030976;28;20278;-63
2022/08/08 08:56:03;;;;;;;5.97;1.30;;;;;;;;;;5049343;28;20195;-63
2022/08/08 08:58:42;;;;;;;5.63;1.40;;;;;;;;;;5033461;28;20234;-65
2022/08/08 09:01:27;;;;;;;6.13;1.50;;;;;;;;;;5036668;28;20268;-66
2022/08/08 09:04:21;;;;;;;8.43;1.90;;;;;;;;;;5048110;28;20191;-64
2022/08/08 09:07:06;;;;;;;4.17;1.60;;;;;;;;;;5049710;28;20194;-64
2022/08/08 09:09:40;;;;;;;3.07;1.30;;;;;;;;;;5047981;28;20221;-64
2022/08/08 09:12:24;;;;;;;4.73;1.53;;;;;;;;;;5037864;28;20927;-64
2022/08/08 09:15:10;;;;;;;5.27;1.50;;;;;;;;;;5038687;28;20221;-64
2022/08/08 09:17:41;;;;;;;3.80;1.20;;;;;;;;;;5047816;28;20191;-64
2022/08/08 09:20:25;;;;;;;6.60;1.53;;;;;;;;;;5040337;28;20285;-65
2022/08/08 09:23:13;;;;;;;7.53;1.87;;;;;;;;;;5051150;28;20202;-66
2022/08/08 09:25:49;;;;;;;5.30;1.83;;;;;;;;;;5046655;28;20214;-66
2022/08/08 09:28:29;;;;;;;4.53;1.20;;;;;;;;;;5041898;28;20235;-66
2022/08/08 09:31:14;;;;;;;4.47;1.70;;;;;;;;;;5044050;28;20241;-65
2022/08/08 09:33:46;;;;;;;21.43;3.37;;;;;;;;;;5048917;28;20208;-65
2022/08/08 09:36:34;;;;;;;3.97;1.40;;;;;;;;;;5039037;28;20199;-64
2022/08/08 09:39:04;;;;;;;4.43;1.70;;;;;;;;;;5043849;28;20216;-64
2022/08/08 09:42:00;;;;;;;4.33;1.47;;;;;;;;;;5044649;28;20186;-66
2022/08/08 09:44:53;;;;;;;13.10;2.43;;;;;;;;;;5041248;28;20192;-64
2022/08/08 09:47:38;;;;;;;4.43;1.47;;;;;;;;;;5038829;28;20212;-65
2022/08/08 09:50:26;;;;;;;2.70;1.43;;;;;;;;;;5036241;28;20227;-62
2022/08/08 09:52:54;;;;;;;5.47;1.30;;;;;;;;;;5038743;28;20201;-62
2022/08/08 09:55:29;;;;;;;2.30;1.30;;;;;;;;;;5042870;28;20218;-62
2022/08/08 09:58:17;;;;;;;2.33;1.40;;;;;;;;;;5050202;28;20194;-62
2022/08/08 10:00:58;;;;;;;2.77;1.50;;;;;;;;;;5048038;28;20657;-63
2022/08/08 10:03:26;;;;;;;5.00;1.50;;;;;;;;;;5050055;28;20231;-62
2022/08/08 10:05:57;;;;;;;3.00;1.50;;;;;;;;;;5049916;28;20542;-61
2022/08/08 10:08:25;;;;;;;2.17;1.43;;;;;;;;;;5042420;28;20219;-62
2022/08/08 10:11:10;;;;;;;3.17;1.53;;;;;;;;;;5045979;28;20206;-63
2022/08/08 10:14:00;;;;;;;10.53;1.90;;;;;;;;;;5044182;28;20277;-67
2022/08/08 10:16:38;;;;;;;4.77;1.43;;;;;;;;;;5047508;28;20742;-62
2022/08/08 10:19:10;;;;;;;10.77;2.33;;;;;;;;;;5048763;28;20206;-63
2022/08/08 10:21:37;;;;;;;11.33;2.07;;;;;;;;;;5047380;28;20298;-61
2022/08/08 10:24:16;;;;;;;6.67;1.67;;;;;;;;;;5045970;28;20266;-62
2022/08/08 10:27:02;;;;;;;18.37;3.50;;;;;;;;;;5050420;28;20194;-62
2022/08/08 10:29:39;;;;;;;13.60;2.30;;;;;;;;;;5048771;28;20617;-62
2022/08/08 10:32:35;;;;;;;16.57;2.40;;;;;;;;;;5052317;28;20523;-63
2022/08/08 10:35:14;;;;;;;4.33;1.60;;;;;;;;;;5030437;28;20191;-63
2022/08/08 10:38:02;;;;;;;22.87;2.90;;;;;;;;;;5021483;28;20195;-62
2022/08/08 10:40:31;;;;;;;12.17;2.00;;;;;;;;;;5036463;28;20286;-63
2022/08/08 10:43:00;;;;;;;3.67;1.60;;;;;;;;;;5063421;28;20214;-63
2022/08/08 10:45:28;;;;;;;3.17;1.47;;;;;;;;;;5035571;28;20202;-61
2022/08/08 10:48:08;;;;;;;3.63;1.87;;;;;;;;;;5043189;28;20202;-61
2022/08/08 10:50:36;;;;;;;6.47;1.80;;;;;;;;;;5034999;28;20219;-62
2022/08/08 10:53:04;;;;;;;6.47;2.43;;;;;;;;;;5043156;28;20601;-62
2022/08/08 10:55:38;;;;;;;4.33;1.70;;;;;;;;;;5042217;28;20191;-61
2022/08/08 10:58:13;;;;;;;3.43;1.60;;;;;;;;;;5034848;28;20586;-61
2022/08/08 11:00:44;;;;;;;2.13;1.60;;;;;;;;;;5050660;28;21070;-61
2022/08/08 11:03:29;;;;;;;8.83;1.80;;;;;;;;;;5039421;28;20776;-61
2022/08/08 11:06:16;;;;;;;5.60;1.90;;;;;;;;;;5045958;28;20190;-61
2022/08/08 11:08:43;;;;;;;4.37;1.70;;;;;;;;;;5021663;28;20666;-61
2022/08/08 11:11:19;;;;;;;6.37;1.90;;;;;;;;;;5046384;28;20547;-62
2022/08/08 11:14:06;;;;;;;2.80;1.60;;;;;;;;;;5031548;28;20198;-61
2022/08/08 11:16:39;;;;;;;8.70;1.83;;;;;;;;;;5029034;28;20196;-61
2022/08/08 11:19:23;;;;;;;3.77;1.60;;;;;;;;;;5034386;28;20213;-61
2022/08/08 11:21:51;;;;;;;10.47;2.13;;;;;;;;;;5031992;28;20531;-62
2022/08/08 11:24:22;;;;;;;5.67;2.13;;;;;;;;;;5027504;28;20298;-61
2022/08/08 11:26:49;;;;;;;2.43;1.70;;;;;;;;;;5040184;28;20540;-61
2022/08/08 11:29:23;;;;;;;9.10;2.20;;;;;;;;;;5028508;28;20311;-59
2022/08/08 11:32:10;;;;;;;2.13;1.40;;;;;;;;;;5030659;28;20223;-60
2022/08/08 11:34:38;;;;;;;3.67;1.70;;;;;;;;;;5043036;28;20197;-61
2022/08/08 11:37:25;;;;;;;3.70;1.83;;;;;;;;;;5028815;28;20195;-61
2022/08/08 11:40:13;;;;;;;3.13;1.70;;;;;;;;;;5033104;28;20674;-61
2022/08/08 11:42:57;;;;;;;3.70;1.77;;;;;;;;;;5040178;28;20238;-60
2022/08/08 11:45:25;;;;;;;2.07;1.67;;;;;;;;;;5037297;28;21037;-61
2022/08/08 11:47:55;;;;;;;8.70;2.33;;;;;;;;;;5048912;28;20211;-60
2022/08/08 11:50:31;;;;;;;4.07;1.90;;;;;;;;;;5048933;28;20682;-61
2022/08/08 11:53:15;;;;;;;3.20;1.73;;;;;;;;;;5048687;28;20182;-61
2022/08/08 11:55:50;;;;;;;4.57;2.00;;;;;;;;;;5048507;28;20199;-60
2022/08/08 11:58:17;;;;;;;5.00;1.93;;;;;;;;;;5048683;28;20221;-61
2022/08/08 12:00:49;;;;;;;41.27;5.93;;;;;;;;;;5048594;28;20240;-61
2022/08/08 12:03:19;;;;;;;3.97;1.90;;;;;;;;;;5041500;28;20243;-62
2022/08/08 12:05:46;;;;;;;3.20;2.20;;;;;;;;;;5044419;28;20541;-61
2022/08/08 12:08:13;;;;;;;3.87;2.27;;;;;;;;;;5049052;28;20202;-61
2022/08/08 12:10:47;;;;;;;5.40;2.07;;;;;;;;;;5048603;28;20298;-61
2022/08/08 12:13:14;;;;;;;4.50;2.20;;;;;;;;;;5048868;28;20256;-61
2022/08/08 12:15:47;;;;;;;5.00;1.97;;;;;;;;;;5048543;28;20593;-61
2022/08/08 12:18:18;;;;;;;5.27;2.27;;;;;;;;;;5048141;28;20820;-61
2022/08/08 12:21:03;;;;;;;3.90;1.90;;;;;;;;;;5048624;28;20186;-62
2022/08/08 12:23:37;;;;;;;4.87;2.20;;;;;;;;;;5048882;28;20195;-61
2022/08/08 12:26:13;;;;;;;6.73;2.27;;;;;;;;;;5044959;28;20722;-61
2022/08/08 12:28:56;;;;;;;3.03;2.10;;;;;;;;;;5048124;28;20222;-62
2022/08/08 12:31:33;;;;;;;4.47;2.10;;;;;;;;;;5044266;28;20222;-65
2022/08/08 12:34:18;;;;;;;8.37;2.87;;;;;;;;;;5050885;28;20198;-62
2022/08/08 12:36:45;;;;;;;9.60;3.00;;;;;;;;;;5051933;28;20235;-62
2022/08/08 12:39:24;;;;;;;5.83;3.10;;;;;;;;;;5044542;28;20231;-62
2022/08/08 12:42:11;;;;;;;6.30;2.50;;;;;;;;;;5049611;28;20175;-61
2022/08/08 12:44:47;;;;;;;4.00;2.43;;;;;;;;;;5052186;28;20230;-65
2022/08/08 12:47:25;;;;;;;4.60;2.50;;;;;;;;;;5050760;28;20199;-62
2022/08/08 12:50:12;;;;;;;3.20;2.30;;;;;;;;;;5051933;28;20274;-62
2022/08/08 12:52:57;;;;;;;4.77;2.50;;;;;;;;;;5051637;28;20252;-61
2022/08/08 12:55:23;;;;;;;3.97;2.27;;;;;;;;;;5051605;28;20205;-61
2022/08/08 12:58:10;;;;;;;4.57;2.33;;;;;;;;;;5051915;28;20244;-62
2022/08/08 13:00:44;;;;;;;4.87;2.43;;;;;;;;;;5051490;28;20193;-62
2022/08/08 13:03:23;;;;;;;3.83;2.30;;;;;;;;;;5051347;28;20198;-62
2022/08/08 13:06:01;;;;;;;4.87;3.10;;;;;;;;;;5051736;28;20194;-62
2022/08/08 13:08:44;;;;;;;4.30;2.30;;;;;;;;;;5031091;28;20290;-63
2022/08/08 13:11:37;;;;;;;2.53;2.13;;;;;;;;;;5009292;28;20238;-60
2022/08/08 13:14:34;;;;;;;3.50;2.20;;;;;;;;;;5039484;28;20218;-59
2022/08/08 13:17:03;;;;;;;5.70;2.80;;;;;;;;;;5042604;28;20195;-59
2022/08/08 13:19:34;;;;;;;2.67;2.03;;;;;;;;;;5043960;28;20219;-60
2022/08/08 13:22:20;;;;;;;3.03;2.20;;;;;;;;;;5039969;28;20197;-60
2022/08/08 13:24:50;;;;;;;3.63;2.60;;;;;;;;;;5042688;28;20198;-60
2022/08/08 13:27:20;;;;;;;4.77;2.60;;;;;;;;;;5041709;28;20294;-60
2022/08/08 13:29:51;;;;;;;7.07;2.90;;;;;;;;;;5042891;28;20619;-60
2022/08/08 13:32:19;;;;;;;6.63;2.70;;;;;;;;;;5040571;28;20254;-61
2022/08/08 13:34:49;;;;;;;2.83;2.40;;;;;;;;;;5044701;28;20244;-61
2022/08/08 13:37:18;;;;;;;3.53;2.90;;;;;;;;;;5043060;28;20264;-60
2022/08/08 13:40:05;;;;;;;8.20;2.83;;;;;;;;;;5044452;28;20202;-61
2022/08/08 13:42:49;;;;;;;5.77;2.60;;;;;;;;;;5036589;28;20175;-65
2022/08/08 13:45:18;;;;;;;16.13;3.90;;;;;;;;;;5043063;28;20682;-64
2022/08/08 13:47:57;;;;;;;4.23;2.80;;;;;;;;;;5038676;28;20281;-65
2022/08/08 13:50:24;;;;;;;4.50;2.40;;;;;;;;;;5037010;28;20661;-64
2022/08/08 13:53:08;;;;;;;2.33;1.97;;;;;;;;;;5041625;28;20651;-63
2022/08/08 13:55:55;;;;;;;3.77;2.40;;;;;;;;;;5042735;28;20193;-64
2022/08/08 13:58:22;;;;;;;3.13;2.30;;;;;;;;;;5043120;28;20992;-63
2022/08/08 14:00:54;;;;;;;2.87;1.93;;;;;;;;;;5041332;28;20187;-62
2022/08/08 14:03:27;;;;;;;4.30;2.87;;;;;;;;;;5041902;28;21003;-63
2022/08/08 14:06:15;;;;;;;4.57;2.80;;;;;;;;;;5041523;28;20190;-63
2022/08/08 14:09:00;;;;;;;4.33;2.40;;;;;;;;;;5040759;28;20193;-62
2022/08/08 14:11:48;;;;;;;4.77;3.03;;;;;;;;;;5013386;28;20349;-64
2022/08/08 14:14:15;;;;;;;7.23;3.13;;;;;;;;;;5037997;28;20206;-63
2022/08/08 14:16:52;;;;;;;5.47;2.70;;;;;;;;;;5037467;28;20214;-63
2022/08/08 14:19:29;;;;;;;3.63;2.60;;;;;;;;;;5037022;28;20266;-64
2022/08/08 14:22:22;;;;;;;5.43;2.93;;;;;;;;;;5041609;28;20201;-63
2022/08/08 14:24:50;;;;;;;6.03;3.40;;;;;;;;;;5040713;28;20207;-64
2022/08/08 14:27:21;;;;;;;5.67;2.87;;;;;;;;;;5041270;28;20191;-64
2022/08/08 14:29:58;;;;;;;5.57;3.07;;;;;;;;;;5041463;28;20229;-63
2022/08/08 14:32:25;;;;;;;4.37;2.50;;;;;;;;;;5042151;28;20246;-63
2022/08/08 14:35:00;;;;;;;5.20;2.50;;;;;;;;;;5042647;28;20218;-63
2022/08/08 14:37:30;;;;;;;3.60;2.50;;;;;;;;;;5041456;28;20693;-63
2022/08/08 14:40:20;;;;;;;3.53;1.93;;;;;;;;;;5040649;28;20201;-63
2022/08/08 14:42:50;;;;;;;5.37;2.57;;;;;;;;;;5040458;28;20195;-63
2022/08/08 14:45:23;;;;;;;6.70;2.70;;;;;;;;;;5040492;28;20191;-63
2022/08/08 14:47:59;;;;;;;6.07;2.60;;;;;;;;;;5041840;28;20250;-62
2022/08/08 14:50:27;;;;;;;10.73;3.37;;;;;;;;;;5040942;28;20202;-62
2022/08/08 14:53:08;;;;;;;6.87;2.97;;;;;;;;;;5041441;28;20187;-63
2022/08/08 14:55:39;;;;;;;3.40;2.33;;;;;;;;;;5041174;28;20298;-62
2022/08/08 14:58:08;;;;;;;4.00;2.40;;;;;;;;;;5041339;28;20273;-61
2022/08/08 15:00:45;;;;;;;3.60;2.30;;;;;;;;;;5040510;28;20224;-62
2022/08/08 15:03:13;;;;;;;10.20;2.90;;;;;;;;;;5041398;28;20198;-61
2022/08/08 15:05:43;;;;;;;4.00;2.30;;;;;;;;;;5041475;28;20210;-62
2022/08/08 15:08:25;;;;;;;3.00;2.30;;;;;;;;;;5040252;28;20194;-61
2022/08/08 15:11:03;;;;;;;4.93;2.90;;;;;;;;;;5013331;28;20629;-62
2022/08/08 15:13:32;;;;;;;4.80;2.40;;;;;;;;;;5040513;28;20658;-62
2022/08/08 15:16:07;;;;;;;6.33;2.37;;;;;;;;;;5039809;28;20586;-63
2022/08/08 15:18:40;;;;;;;8.37;2.30;;;;;;;;;;5041284;28;20209;-62
2022/08/08 15:21:17;;;;;;;3.03;2.20;;;;;;;;;;5040743;28;20190;-62
2022/08/08 15:23:44;;;;;;;3.47;2.27;;;;;;;;;;5040909;28;20209;-62
2022/08/08 15:26:18;;;;;;;3.60;2.10;;;;;;;;;;5041048;28;20646;-62
2022/08/08 15:28:46;;;;;;;13.27;3.13;;;;;;;;;;5040353;28;20215;-62
2022/08/08 15:31:18;;;;;;;2.67;2.10;;;;;;;;;;5038851;28;20222;-62
2022/08/08 15:34:05;;;;;;;4.60;2.30;;;;;;;;;;5040121;28;20199;-61
2022/08/08 15:36:34;;;;;;;2.63;2.00;;;;;;;;;;5041764;28;20186;-61
2022/08/08 15:39:21;;;;;;;4.13;2.17;;;;;;;;;;5040157;28;20224;-62
2022/08/08 15:41:48;;;;;;;6.00;3.00;;;;;;;;;;5040548;28;21099;-64
2022/08/08 15:44:16;;;;;;;4.90;2.97;;;;;;;;;;5040704;28;20198;-63
2022/08/08 15:46:43;;;;;;;6.33;3.43;;;;;;;;;;5040664;28;20199;-59
2022/08/08 15:49:11;;;;;;;7.30;2.43;;;;;;;;;;5039037;28;20191;-63
2022/08/08 15:51:38;;;;;;;8.30;3.30;;;;;;;;;;5039936;28;20309;-62
2022/08/08 15:54:05;;;;;;;4.33;2.53;;;;;;;;;;5038758;28;20298;-62
2022/08/08 15:56:44;;;;;;;4.73;2.30;;;;;;;;;;5039343;28;20574;-62
2022/08/08 15:59:11;;;;;;;7.60;2.73;;;;;;;;;;5040090;28;20999;-62
2022/08/08 16:01:56;;;;;;;4.67;2.37;;;;;;;;;;5040852;28;20186;-62
2022/08/08 16:04:28;;;;;;;3.40;1.93;;;;;;;;;;5040214;28;20194;-61